createdAt,value
2018-04-14T03:22:10.363Z,0.00
2018-04-14T03:23:10.359Z,0.00
2018-04-14T03:24:10.340Z,0.00
2018-04-14T03:25:10.320Z,0.00
2018-04-14T03:26:10.310Z,0.00
2018-04-14T03:27:10.296Z,0.00
2018-04-14T03:28:10.289Z,0.00
2018-04-14T03:29:10.422Z,0.00
2018-04-14T03:30:10.279Z,0.00
2018-04-14T03:31:10.272Z,0.00
2018-04-14T03:32:10.259Z,0.00
2018-04-14T03:33:10.251Z,0.00
2018-04-14T03:34:10.242Z,0.00
2018-04-14T03:35:10.239Z,0.00
2018-04-14T03:36:10.229Z,0.00
2018-04-14T03:37:10.237Z,0.00
2018-04-14T03:38:10.241Z,0.00
2018-04-14T03:39:10.233Z,0.00
2018-04-14T03:40:10.220Z,0.00
2018-04-14T03:41:10.208Z,0.00
2018-04-14T03:42:10.203Z,0.00
2018-04-14T03:43:10.186Z,0.00
2018-04-14T03:44:10.180Z,0.00
2018-04-14T03:45:10.170Z,0.00
2018-04-14T03:46:10.180Z,0.00
2018-04-14T03:47:10.159Z,0.00
2018-04-14T03:48:10.156Z,0.00
2018-04-14T03:49:10.160Z,0.00
2018-04-14T03:50:10.146Z,0.00
2018-04-14T03:51:10.138Z,0.00
2018-04-14T03:52:10.137Z,0.00
2018-04-14T03:53:10.129Z,0.00
2018-04-14T03:54:10.133Z,0.00
2018-04-14T03:55:10.109Z,0.00
2018-04-14T03:56:10.111Z,0.00
2018-04-14T03:57:10.131Z,0.00
2018-04-14T03:58:10.093Z,0.00
2018-04-14T03:59:10.091Z,0.00
2018-04-14T04:00:10.089Z,0.00
2018-04-14T04:01:10.898Z,0.00
2018-04-14T04:02:10.090Z,0.00
2018-04-14T04:03:10.072Z,0.00
2018-04-14T04:04:10.060Z,0.00
2018-04-14T04:05:10.053Z,0.00
2018-04-14T04:06:10.047Z,0.00
2018-04-14T04:07:10.039Z,0.00
2018-04-14T04:08:10.043Z,0.00
2018-04-14T04:09:10.035Z,0.00
2018-04-14T04:10:10.029Z,0.00
2018-04-14T04:11:10.090Z,0.00
2018-04-14T04:12:10.026Z,0.00
2018-04-14T04:13:10.001Z,0.00
2018-04-14T04:14:09.998Z,0.00
2018-04-14T04:15:09.992Z,0.00
2018-04-14T04:16:09.991Z,0.00
2018-04-14T04:17:09.992Z,0.00
2018-04-14T04:18:09.982Z,0.00
2018-04-14T04:19:09.992Z,0.00
2018-04-14T04:20:09.989Z,0.00
2018-04-14T04:21:09.993Z,0.00
2018-04-14T04:22:09.953Z,0.00
2018-04-14T04:23:09.963Z,0.00
2018-04-14T04:24:10.004Z,0.00
2018-04-14T04:25:09.937Z,0.00
2018-04-14T04:26:09.953Z,0.00
2018-04-14T04:27:09.925Z,0.00
2018-04-14T04:28:19.634Z,0.00
2018-04-14T04:30:03.429Z,0.00
2018-04-14T04:31:03.371Z,0.00
2018-04-14T04:32:03.368Z,0.00
2018-04-14T04:33:03.368Z,0.00
2018-04-14T04:34:03.353Z,0.00
2018-04-14T04:35:03.359Z,0.00
2018-04-14T04:36:03.364Z,0.00
2018-04-14T04:37:03.376Z,0.00
2018-04-14T04:38:03.329Z,0.00
2018-04-14T04:39:03.324Z,0.00
2018-04-14T04:40:03.322Z,0.00
2018-04-14T04:41:03.330Z,0.00
2018-04-14T04:42:03.312Z,0.00
2018-04-14T04:43:03.310Z,0.00
2018-04-14T04:44:03.392Z,0.00
2018-04-14T04:45:03.289Z,0.00
2018-04-14T04:46:03.320Z,0.00
2018-04-14T04:47:03.277Z,0.00
2018-04-14T04:48:03.309Z,0.00
2018-04-14T04:49:03.279Z,0.00
2018-04-14T04:50:03.300Z,0.00
2018-04-14T04:51:03.286Z,0.00
2018-04-14T04:52:03.266Z,0.00
2018-04-14T04:53:03.263Z,0.00
2018-04-14T04:54:03.281Z,5.63
2018-04-14T04:55:03.237Z,5.63
2018-04-14T04:56:03.232Z,5.63
2018-04-14T04:57:03.229Z,5.63
2018-04-14T04:58:03.230Z,5.63
2018-04-14T04:59:03.216Z,5.63
2018-04-14T05:00:03.211Z,5.63
2018-04-14T05:01:03.204Z,5.63
2018-04-14T05:02:03.206Z,5.63
2018-04-14T05:03:03.198Z,5.63
2018-04-14T05:04:03.191Z,5.63
2018-04-14T05:05:03.182Z,5.63
2018-04-14T05:06:03.203Z,5.63
2018-04-14T05:07:03.174Z,11.25
2018-04-14T05:08:03.164Z,11.25
2018-04-14T05:09:03.175Z,11.25
2018-04-14T05:10:03.156Z,11.25
2018-04-14T05:11:03.191Z,11.25
2018-04-14T05:12:03.142Z,11.25
2018-04-14T05:13:03.135Z,11.25
2018-04-14T05:14:03.139Z,11.25
2018-04-14T05:15:03.125Z,16.88
2018-04-14T05:16:03.137Z,16.88
2018-04-14T05:17:03.124Z,16.88
2018-04-14T05:18:03.118Z,16.88
2018-04-14T05:19:03.201Z,16.88
2018-04-14T05:20:03.112Z,16.88
2018-04-14T05:21:03.100Z,22.50
2018-04-14T05:22:03.107Z,22.50
2018-04-14T05:23:03.097Z,22.50
2018-04-14T05:24:03.095Z,28.13
2018-04-14T05:25:03.104Z,28.13
2018-04-14T05:27:26.371Z,39.38
2018-04-14T05:28:26.380Z,39.38
2018-04-14T05:29:26.374Z,45.00
2018-04-14T05:30:26.358Z,50.63
2018-04-14T05:31:26.341Z,56.25
2018-04-14T05:32:26.362Z,73.13
2018-04-14T05:33:26.351Z,78.75
2018-04-14T05:34:26.359Z,78.75
2018-04-14T05:35:26.370Z,73.13
2018-04-14T05:36:26.358Z,78.75
2018-04-14T05:37:26.360Z,90.00
2018-04-14T05:38:26.358Z,95.63
2018-04-14T05:39:26.355Z,101.25
2018-04-14T05:40:26.352Z,101.25
2018-04-14T05:41:26.406Z,106.88
2018-04-14T05:42:26.378Z,106.88
2018-04-14T05:43:26.369Z,95.63
2018-04-14T05:44:26.403Z,101.25
2018-04-14T05:45:26.381Z,101.25
2018-04-14T05:46:26.405Z,95.63
2018-04-14T05:47:26.418Z,84.38
2018-04-14T05:48:26.393Z,73.13
2018-04-14T05:49:26.401Z,61.88
2018-04-14T05:50:26.404Z,67.50
2018-04-14T05:51:26.409Z,73.13
2018-04-14T05:52:26.421Z,67.50
2018-04-14T05:53:26.432Z,84.38
2018-04-14T05:54:26.468Z,101.25
2018-04-14T05:55:26.467Z,112.50
2018-04-14T05:56:26.452Z,106.88
2018-04-14T05:57:26.521Z,101.25
2018-04-14T05:58:26.469Z,73.13
2018-04-14T05:59:26.483Z,50.63
2018-04-14T06:00:26.510Z,45.00
2018-04-14T06:01:26.509Z,39.38
2018-04-14T06:02:26.531Z,39.38
2018-04-14T06:03:26.508Z,33.75
2018-04-14T06:04:26.548Z,33.75
2018-04-14T06:05:26.559Z,28.13
2018-04-14T06:06:26.544Z,22.50
2018-04-14T06:07:26.546Z,16.88
2018-04-14T06:08:26.553Z,16.88
2018-04-14T06:09:26.559Z,16.88
2018-04-14T06:10:26.571Z,16.88
2018-04-14T06:11:26.687Z,16.88
2018-04-14T06:12:26.618Z,16.88
2018-04-14T06:13:26.706Z,16.88
2018-04-14T06:14:26.683Z,16.88
2018-04-14T06:15:26.618Z,16.88
2018-04-14T06:16:26.728Z,16.88
2018-04-14T06:17:26.710Z,16.88
2018-04-14T06:18:26.701Z,16.88
2018-04-14T06:19:26.629Z,16.88
2018-04-14T06:20:26.685Z,16.88
2018-04-14T06:21:26.625Z,16.88
2018-04-14T06:22:26.652Z,16.88
2018-04-14T06:23:26.627Z,16.88
2018-04-14T06:24:26.650Z,16.88
2018-04-14T06:25:26.655Z,16.88
2018-04-14T06:26:26.624Z,16.88
2018-04-14T06:27:26.692Z,16.88
2018-04-14T06:28:26.651Z,16.88
2018-04-14T06:29:26.632Z,16.88
2018-04-14T06:30:26.645Z,16.88
2018-04-14T06:31:26.642Z,16.88
2018-04-14T06:32:26.647Z,16.88
2018-04-14T06:33:26.661Z,16.88
2018-04-14T06:34:26.666Z,16.88
2018-04-14T06:35:26.693Z,16.88
2018-04-14T06:36:26.634Z,16.88
2018-04-14T06:37:26.680Z,16.88
2018-04-14T06:38:26.637Z,16.88
2018-04-14T06:39:26.643Z,16.88
2018-04-14T06:40:26.656Z,16.88
2018-04-14T06:41:26.672Z,11.25
2018-04-14T06:42:26.656Z,11.25
2018-04-14T06:43:26.660Z,11.25
2018-04-14T06:44:26.655Z,11.25
2018-04-14T06:45:26.640Z,11.25
2018-04-14T06:46:26.741Z,11.25
2018-04-14T06:47:26.657Z,11.25
2018-04-14T06:48:26.656Z,11.25
2018-04-14T06:49:26.638Z,11.25
2018-04-14T06:50:26.690Z,11.25
2018-04-14T06:51:26.632Z,11.25
2018-04-14T06:52:26.684Z,11.25
2018-04-14T06:53:26.627Z,11.25
2018-04-14T06:54:26.627Z,11.25
2018-04-14T06:55:26.638Z,11.25
2018-04-14T06:56:26.682Z,11.25
2018-04-14T06:57:26.687Z,11.25
2018-04-14T06:58:26.658Z,11.25
2018-04-14T06:59:26.662Z,11.25
2018-04-14T07:00:26.627Z,11.25
2018-04-14T07:01:26.624Z,11.25
2018-04-14T07:02:26.659Z,11.25
2018-04-14T07:03:26.642Z,11.25
2018-04-14T07:04:26.681Z,11.25
2018-04-14T07:05:26.609Z,11.25
2018-04-14T07:06:26.677Z,11.25
2018-04-14T07:07:26.692Z,11.25
2018-04-14T07:08:26.707Z,11.25
2018-04-14T07:09:26.650Z,11.25
2018-04-14T07:10:26.729Z,11.25
2018-04-14T07:11:26.607Z,11.25
2018-04-14T07:12:26.650Z,11.25
2018-04-14T07:13:26.641Z,11.25
2018-04-14T07:14:26.630Z,11.25
2018-04-14T07:15:26.625Z,11.25
2018-04-14T07:16:26.597Z,11.25
2018-04-14T07:17:26.597Z,11.25
2018-04-14T07:18:26.602Z,11.25
2018-04-14T07:19:26.592Z,11.25
2018-04-14T07:20:26.637Z,11.25
2018-04-14T07:21:26.625Z,11.25
2018-04-14T07:22:26.645Z,11.25
2018-04-14T07:23:26.623Z,11.25
2018-04-14T07:24:26.597Z,11.25
2018-04-14T07:25:26.580Z,11.25
2018-04-14T07:26:26.574Z,11.25
2018-04-14T07:27:26.570Z,11.25
2018-04-14T07:28:26.590Z,11.25
2018-04-14T07:29:26.645Z,11.25
2018-04-14T07:30:26.620Z,11.25
2018-04-14T07:31:26.570Z,11.25
2018-04-14T07:32:26.616Z,11.25
2018-04-14T07:33:26.583Z,11.25
2018-04-14T07:34:26.557Z,11.25
2018-04-14T07:35:26.558Z,11.25
2018-04-14T07:36:26.579Z,11.25
2018-04-14T07:37:26.550Z,11.25
2018-04-14T07:38:26.555Z,11.25
2018-04-14T07:39:26.585Z,11.25
2018-04-14T07:40:26.597Z,11.25
2018-04-14T07:41:26.540Z,11.25
2018-04-14T07:42:26.545Z,11.25
2018-04-14T07:43:26.541Z,11.25
2018-04-14T07:44:26.566Z,11.25
2018-04-14T07:45:26.558Z,11.25
2018-04-14T07:46:26.565Z,11.25
2018-04-14T07:47:26.531Z,11.25
2018-04-14T07:48:26.536Z,11.25
2018-04-14T07:49:26.537Z,11.25
2018-04-14T07:50:26.554Z,11.25
2018-04-14T07:51:26.525Z,11.25
2018-04-14T07:52:26.526Z,11.25
2018-04-14T07:53:26.529Z,11.25
2018-04-14T07:54:26.518Z,11.25
2018-04-14T07:55:26.522Z,11.25
2018-04-14T07:56:26.522Z,11.25
2018-04-14T07:57:26.510Z,11.25
2018-04-14T07:58:26.515Z,11.25
2018-04-14T07:59:26.512Z,11.25
2018-04-14T08:00:26.540Z,11.25
2018-04-14T08:01:26.504Z,11.25
2018-04-14T08:03:47.992Z,11.25
2018-04-14T08:04:47.733Z,11.25
2018-04-14T08:05:47.739Z,11.25
2018-04-14T08:06:47.738Z,11.25
2018-04-14T08:07:57.118Z,11.25
2018-04-14T08:09:41.161Z,11.25
2018-04-14T08:10:41.162Z,11.25
2018-04-14T08:11:41.205Z,11.25
2018-04-14T08:12:41.186Z,11.25
2018-04-14T08:13:41.139Z,11.25
2018-04-14T08:14:41.183Z,11.25
2018-04-14T08:15:41.145Z,11.25
2018-04-14T08:16:41.136Z,11.25
2018-04-14T08:17:41.143Z,11.25
2018-04-14T08:18:41.135Z,11.25
2018-04-14T08:19:41.135Z,11.25
2018-04-14T08:20:41.132Z,11.25
2018-04-14T08:21:41.147Z,11.25
2018-04-14T08:22:41.137Z,11.25
2018-04-14T08:23:41.143Z,11.25
2018-04-14T08:24:41.168Z,11.25
2018-04-14T08:25:41.142Z,11.25
2018-04-14T08:26:41.218Z,11.25
2018-04-14T08:27:41.126Z,11.25
2018-04-14T08:28:41.137Z,11.25
2018-04-14T08:29:41.124Z,11.25
2018-04-14T08:30:41.141Z,11.25
2018-04-14T08:31:41.186Z,11.25
2018-04-14T08:32:41.127Z,11.25
2018-04-14T08:33:41.114Z,11.25
2018-04-14T08:34:41.176Z,11.25
2018-04-14T08:35:41.122Z,11.25
2018-04-14T08:36:41.212Z,11.25
2018-04-14T08:37:41.099Z,11.25
2018-04-14T08:38:41.147Z,11.25
2018-04-14T08:39:41.099Z,11.25
2018-04-14T08:40:41.107Z,11.25
2018-04-14T08:41:41.109Z,11.25
2018-04-14T08:42:41.101Z,11.25
2018-04-14T08:43:41.092Z,11.25
2018-04-14T08:44:41.101Z,11.25
2018-04-14T08:45:41.097Z,11.25
2018-04-14T08:46:41.105Z,11.25
2018-04-14T08:47:41.120Z,11.25
2018-04-14T08:48:41.106Z,11.25
2018-04-14T08:49:41.096Z,11.25
2018-04-14T08:50:41.135Z,11.25
2018-04-14T08:51:41.083Z,11.25
2018-04-14T08:52:41.119Z,11.25
2018-04-14T08:53:41.099Z,11.25
2018-04-14T08:54:41.083Z,11.25
2018-04-14T08:55:41.116Z,11.25
2018-04-14T08:56:41.077Z,11.25
2018-04-14T08:57:41.078Z,11.25
2018-04-14T08:58:41.076Z,11.25
2018-04-14T08:59:41.091Z,11.25
2018-04-14T09:00:41.095Z,11.25
2018-04-14T09:01:41.085Z,11.25
2018-04-14T09:02:41.093Z,11.25
2018-04-14T09:03:41.072Z,11.25
2018-04-14T09:04:41.125Z,11.25
2018-04-14T09:05:41.073Z,11.25
2018-04-14T09:06:41.117Z,11.25
2018-04-14T09:07:41.096Z,11.25
2018-04-14T09:08:41.262Z,11.25
2018-04-14T09:09:41.104Z,11.25
2018-04-14T09:10:41.072Z,11.25
2018-04-14T09:11:41.076Z,11.25
2018-04-14T09:12:41.073Z,11.25
2018-04-14T09:13:41.093Z,11.25
2018-04-14T09:14:41.083Z,11.25
2018-04-14T09:15:41.079Z,11.25
2018-04-14T09:16:41.081Z,11.25
2018-04-14T09:17:41.062Z,11.25
2018-04-14T09:18:41.058Z,11.25
2018-04-14T09:19:41.069Z,11.25
2018-04-14T09:20:41.081Z,11.25
2018-04-14T09:21:41.068Z,11.25
2018-04-14T09:22:41.073Z,11.25
2018-04-14T09:23:41.057Z,11.25
2018-04-14T09:24:41.064Z,11.25
2018-04-14T09:25:41.074Z,11.25
2018-04-14T09:26:41.058Z,11.25
2018-04-14T09:27:41.115Z,11.25
2018-04-14T09:28:41.089Z,11.25
2018-04-14T09:29:41.084Z,11.25
2018-04-14T09:30:41.058Z,11.25
2018-04-14T09:31:41.056Z,11.25
2018-04-14T09:32:41.053Z,11.25
2018-04-14T09:33:41.057Z,11.25
2018-04-14T09:34:41.075Z,11.25
2018-04-14T09:35:41.073Z,11.25
2018-04-14T09:36:41.172Z,11.25
2018-04-14T09:37:41.058Z,11.25
2018-04-14T09:38:41.057Z,11.25
2018-04-14T09:39:41.072Z,11.25
2018-04-14T09:40:41.063Z,11.25
2018-04-14T09:41:41.097Z,11.25
2018-04-14T09:42:41.096Z,11.25
2018-04-14T09:43:41.077Z,11.25
2018-04-14T09:44:41.111Z,11.25
2018-04-14T09:45:41.083Z,11.25
2018-04-14T09:46:41.055Z,11.25
2018-04-14T09:47:41.051Z,11.25
2018-04-14T09:48:41.058Z,11.25
2018-04-14T09:49:41.055Z,11.25
2018-04-14T09:50:41.129Z,11.25
2018-04-14T09:51:41.064Z,11.25
2018-04-14T09:52:41.057Z,11.25
2018-04-14T09:53:41.068Z,11.25
2018-04-14T09:54:41.094Z,11.25
2018-04-14T09:55:41.066Z,11.25
2018-04-14T09:56:41.088Z,11.25
2018-04-14T09:57:41.084Z,11.25
2018-04-14T09:58:41.108Z,11.25
2018-04-14T09:59:41.091Z,11.25
2018-04-14T10:00:41.089Z,11.25
2018-04-14T10:01:41.089Z,11.25
2018-04-14T10:02:41.104Z,11.25
2018-04-14T10:03:41.057Z,11.25
2018-04-14T10:04:41.057Z,11.25
2018-04-14T10:05:41.073Z,11.25
2018-04-14T10:06:41.061Z,11.25
2018-04-14T10:09:02.141Z,11.25
2018-04-14T10:10:02.119Z,11.25
2018-04-14T10:11:02.122Z,11.25
2018-04-14T10:12:02.375Z,11.25
2018-04-14T10:13:02.125Z,11.25
2018-04-14T10:14:02.134Z,11.25
2018-04-14T10:15:02.177Z,11.25
2018-04-14T10:16:02.121Z,11.25
2018-04-14T10:17:02.194Z,11.25
2018-04-14T10:18:02.151Z,11.25
2018-04-14T10:19:02.130Z,11.25
2018-04-14T10:20:02.180Z,11.25
2018-04-14T10:21:02.182Z,11.25
2018-04-14T10:22:02.149Z,11.25
2018-04-14T10:23:02.135Z,11.25
2018-04-14T10:24:02.140Z,11.25
2018-04-14T10:25:02.137Z,11.25
2018-04-14T10:26:02.129Z,11.25
2018-04-14T10:27:02.127Z,11.25
2018-04-14T10:28:02.133Z,11.25
2018-04-14T10:29:02.132Z,11.25
2018-04-14T10:30:02.130Z,11.25
2018-04-14T10:31:02.135Z,11.25
2018-04-14T10:32:02.135Z,11.25
2018-04-14T10:33:02.152Z,11.25
2018-04-14T10:34:02.133Z,11.25
2018-04-14T10:35:02.136Z,11.25
2018-04-14T10:36:02.139Z,11.25
2018-04-14T10:37:02.193Z,11.25
2018-04-14T10:38:02.159Z,11.25
2018-04-14T10:39:02.158Z,11.25
2018-04-14T10:40:02.155Z,11.25
2018-04-14T10:41:02.165Z,11.25
2018-04-14T10:42:02.159Z,11.25
2018-04-14T10:43:02.152Z,11.25
2018-04-14T10:44:02.146Z,11.25
2018-04-14T10:45:02.258Z,11.25
2018-04-14T10:46:02.152Z,11.25
2018-04-14T10:47:02.154Z,11.25
2018-04-14T10:48:02.156Z,11.25
2018-04-14T10:49:02.157Z,11.25
2018-04-14T10:50:02.191Z,11.25
2018-04-14T10:51:02.163Z,11.25
2018-04-14T10:52:02.158Z,11.25
2018-04-14T10:53:02.161Z,11.25
2018-04-14T10:54:02.163Z,11.25
2018-04-14T10:55:02.193Z,11.25
2018-04-14T10:56:02.176Z,11.25
2018-04-14T10:57:02.166Z,11.25
2018-04-14T10:58:02.178Z,11.25
2018-04-14T10:59:02.192Z,11.25
2018-04-14T11:00:02.189Z,11.25
2018-04-14T11:01:02.188Z,11.25
2018-04-14T11:02:02.211Z,11.25
2018-04-14T11:03:02.179Z,11.25
2018-04-14T11:04:02.181Z,11.25
2018-04-14T11:05:02.184Z,11.25
2018-04-14T11:06:02.214Z,11.25
2018-04-14T11:07:02.177Z,11.25
2018-04-14T11:08:02.193Z,16.88
2018-04-14T11:09:02.185Z,16.88
2018-04-14T11:10:02.193Z,16.88
2018-04-14T11:11:02.221Z,16.88
2018-04-14T11:12:02.188Z,16.88
2018-04-14T11:13:02.196Z,16.88
2018-04-14T11:14:02.197Z,16.88
2018-04-14T11:15:02.200Z,16.88
2018-04-14T11:16:02.199Z,16.88
2018-04-14T11:17:02.208Z,11.25
2018-04-14T11:18:02.236Z,11.25
2018-04-14T11:19:02.214Z,11.25
2018-04-14T11:20:02.227Z,11.25
2018-04-14T11:21:02.233Z,11.25
2018-04-14T11:22:02.233Z,11.25
2018-04-14T11:23:02.235Z,11.25
2018-04-14T11:24:02.224Z,11.25
2018-04-14T11:25:02.211Z,11.25
2018-04-14T11:26:02.215Z,11.25
2018-04-14T11:27:02.218Z,11.25
2018-04-14T11:28:02.222Z,11.25
2018-04-14T11:29:02.223Z,11.25
2018-04-14T11:30:02.234Z,11.25
2018-04-14T11:31:02.247Z,11.25
2018-04-14T11:32:02.224Z,11.25
2018-04-14T11:33:02.228Z,11.25
2018-04-14T11:34:02.263Z,11.25
2018-04-14T11:35:02.233Z,11.25
2018-04-14T11:36:02.243Z,11.25
2018-04-14T11:37:02.242Z,11.25
2018-04-14T11:38:02.245Z,11.25
2018-04-14T11:39:02.248Z,11.25
2018-04-14T11:40:02.242Z,11.25
2018-04-14T11:41:02.265Z,11.25
2018-04-14T11:42:02.247Z,11.25
2018-04-14T11:43:02.272Z,16.88
2018-04-14T11:44:02.300Z,16.88
2018-04-14T11:45:02.252Z,16.88
2018-04-14T11:46:02.254Z,16.88
2018-04-14T11:47:02.254Z,16.88
2018-04-14T11:48:02.254Z,16.88
2018-04-14T11:49:02.265Z,16.88
2018-04-14T11:50:02.286Z,16.88
2018-04-14T11:51:02.330Z,16.88
2018-04-14T11:52:02.302Z,16.88
2018-04-14T11:53:02.298Z,16.88
2018-04-14T11:54:02.300Z,16.88
2018-04-14T11:55:02.274Z,16.88
2018-04-14T11:56:02.286Z,16.88
2018-04-14T11:57:02.302Z,16.88
2018-04-14T11:58:02.288Z,16.88
2018-04-14T11:59:02.345Z,16.88
2018-04-14T12:00:02.296Z,16.88
2018-04-14T12:01:02.353Z,16.88
2018-04-14T12:02:02.310Z,16.88
2018-04-14T12:03:02.324Z,16.88
2018-04-14T12:04:02.356Z,16.88
2018-04-14T12:05:02.568Z,16.88
2018-04-14T12:06:02.345Z,16.88
2018-04-14T12:07:02.305Z,16.88
2018-04-14T12:08:02.460Z,16.88
2018-04-14T12:09:02.373Z,11.25
2018-04-14T12:10:02.390Z,11.25
2018-04-14T12:11:02.311Z,11.25
2018-04-14T12:12:02.495Z,11.25
2018-04-14T12:13:02.500Z,11.25
2018-04-14T12:14:02.346Z,11.25
2018-04-14T12:15:02.400Z,11.25
2018-04-14T12:16:02.357Z,11.25
2018-04-14T12:17:02.368Z,11.25
2018-04-14T12:18:02.390Z,11.25
2018-04-14T12:19:02.342Z,11.25
2018-04-14T12:20:02.341Z,11.25
2018-04-14T12:21:02.348Z,11.25
2018-04-14T12:22:02.357Z,11.25
2018-04-14T12:23:02.373Z,11.25
2018-04-14T12:24:02.362Z,11.25
2018-04-14T12:25:02.419Z,11.25
2018-04-14T12:26:02.391Z,11.25
2018-04-14T12:27:02.386Z,11.25
2018-04-14T12:28:02.396Z,11.25
2018-04-14T12:29:02.411Z,11.25
2018-04-14T12:30:02.420Z,11.25
2018-04-14T12:31:02.400Z,11.25
2018-04-14T12:32:02.406Z,11.25
2018-04-14T12:33:02.391Z,11.25
2018-04-14T12:34:02.381Z,11.25
2018-04-14T12:35:02.534Z,11.25
2018-04-14T12:36:02.460Z,11.25
2018-04-14T12:37:02.437Z,11.25
2018-04-14T12:38:02.389Z,11.25
2018-04-14T12:39:02.425Z,11.25
2018-04-14T12:40:02.393Z,11.25
2018-04-14T12:41:02.397Z,11.25
2018-04-14T12:42:02.424Z,11.25
2018-04-14T12:43:02.413Z,11.25
2018-04-14T12:44:02.415Z,11.25
2018-04-14T12:45:02.433Z,11.25
2018-04-14T12:46:02.412Z,11.25
2018-04-14T12:47:02.415Z,11.25
2018-04-14T12:48:02.456Z,11.25
2018-04-14T12:49:02.427Z,11.25
2018-04-14T12:50:02.440Z,11.25
2018-04-14T12:51:02.473Z,11.25
2018-04-14T12:52:02.464Z,11.25
2018-04-14T12:53:02.463Z,11.25
2018-04-14T12:54:02.465Z,11.25
2018-04-14T12:55:02.465Z,11.25
2018-04-14T12:56:02.510Z,11.25
2018-04-14T12:57:02.465Z,11.25
2018-04-14T12:58:02.471Z,11.25
2018-04-14T12:59:02.463Z,11.25
2018-04-14T13:00:02.446Z,11.25
2018-04-14T13:01:02.691Z,11.25
2018-04-14T13:02:02.462Z,11.25
2018-04-14T13:03:02.456Z,11.25
2018-04-14T13:04:02.461Z,11.25
2018-04-14T13:05:02.485Z,11.25
2018-04-14T13:06:02.468Z,11.25
2018-04-14T13:07:02.532Z,11.25
2018-04-14T13:08:02.477Z,11.25
2018-04-14T13:09:02.492Z,11.25
2018-04-14T13:10:02.483Z,11.25
2018-04-14T13:11:02.495Z,11.25
2018-04-14T13:12:02.492Z,11.25
2018-04-14T13:13:02.493Z,11.25
2018-04-14T13:14:02.510Z,11.25
2018-04-14T13:15:02.505Z,11.25
2018-04-14T13:16:02.505Z,11.25
2018-04-14T13:17:02.518Z,11.25
2018-04-14T13:18:02.523Z,11.25
2018-04-14T13:19:02.580Z,11.25
2018-04-14T13:20:02.532Z,11.25
2018-04-14T13:21:02.558Z,11.25
2018-04-14T13:22:02.534Z,11.25
2018-04-14T13:23:02.558Z,16.88
2018-04-14T13:24:02.539Z,16.88
2018-04-14T13:25:02.568Z,16.88
2018-04-14T13:26:02.544Z,16.88
2018-04-14T13:27:02.621Z,16.88
2018-04-14T13:28:02.566Z,11.25
2018-04-14T13:29:02.578Z,11.25
2018-04-14T13:30:02.550Z,16.88
2018-04-14T13:31:02.550Z,16.88
2018-04-14T13:32:02.548Z,16.88
2018-04-14T13:33:11.750Z,16.88
2018-04-14T13:34:56.169Z,16.88
2018-04-14T13:35:56.000Z,16.88
2018-04-14T13:36:56.070Z,16.88
2018-04-14T13:37:56.025Z,16.88
2018-04-14T13:38:56.038Z,16.88
2018-04-14T13:39:56.001Z,16.88
2018-04-14T13:40:56.005Z,16.88
2018-04-14T13:41:56.002Z,16.88
2018-04-14T13:42:56.039Z,16.88
2018-04-14T13:43:56.048Z,16.88
2018-04-14T13:44:56.025Z,16.88
2018-04-14T13:45:56.032Z,16.88
2018-04-14T13:46:56.096Z,16.88
2018-04-14T13:47:56.053Z,16.88
2018-04-14T13:48:56.059Z,16.88
2018-04-14T13:49:56.037Z,16.88
2018-04-14T13:50:56.126Z,16.88
2018-04-14T13:51:56.021Z,16.88
2018-04-14T13:52:56.035Z,16.88
2018-04-14T13:53:56.031Z,16.88
2018-04-14T13:54:56.033Z,16.88
2018-04-14T13:55:56.030Z,16.88
2018-04-14T13:56:56.033Z,16.88
2018-04-14T13:57:56.040Z,16.88
2018-04-14T13:58:56.043Z,16.88
2018-04-14T13:59:56.082Z,16.88
2018-04-14T14:00:56.075Z,16.88
2018-04-14T14:01:56.092Z,16.88
2018-04-14T14:02:56.076Z,16.88
2018-04-14T14:03:56.071Z,16.88
2018-04-14T14:04:56.081Z,16.88
2018-04-14T14:05:56.096Z,16.88
2018-04-14T14:06:56.068Z,16.88
2018-04-14T14:07:56.117Z,16.88
2018-04-14T14:08:56.081Z,16.88
2018-04-14T14:09:56.105Z,16.88
2018-04-14T14:10:56.117Z,16.88
2018-04-14T14:11:56.084Z,16.88
2018-04-14T14:12:56.103Z,16.88
2018-04-14T14:13:56.115Z,16.88
2018-04-14T14:14:56.118Z,16.88
2018-04-14T14:15:56.110Z,16.88
2018-04-14T14:16:56.110Z,16.88
2018-04-14T14:17:56.104Z,16.88
2018-04-14T14:18:56.109Z,16.88
2018-04-14T14:19:56.129Z,16.88
2018-04-14T14:20:56.311Z,16.88
2018-04-14T14:21:56.161Z,16.88
2018-04-14T14:22:56.147Z,11.25
2018-04-14T14:23:56.150Z,11.25
2018-04-14T14:24:56.172Z,11.25
2018-04-14T14:25:56.135Z,11.25
2018-04-14T14:26:56.214Z,11.25
2018-04-14T14:27:56.144Z,11.25
2018-04-14T14:28:56.145Z,11.25
2018-04-14T14:29:56.164Z,11.25
2018-04-14T14:30:56.165Z,11.25
2018-04-14T14:31:56.238Z,11.25
2018-04-14T14:32:56.256Z,11.25
2018-04-14T14:33:56.171Z,11.25
2018-04-14T14:34:56.219Z,11.25
2018-04-14T14:35:56.240Z,11.25
2018-04-14T14:36:56.329Z,11.25
2018-04-14T14:37:56.242Z,11.25
2018-04-14T14:38:56.257Z,11.25
2018-04-14T14:39:56.223Z,11.25
2018-04-14T14:40:56.340Z,11.25
2018-04-14T14:41:56.219Z,11.25
2018-04-14T14:42:56.240Z,11.25
2018-04-14T14:43:56.264Z,11.25
2018-04-14T14:44:56.221Z,11.25
2018-04-14T14:45:56.376Z,11.25
2018-04-14T14:46:56.238Z,11.25
2018-04-14T14:47:56.223Z,11.25
2018-04-14T14:48:56.222Z,11.25
2018-04-14T14:51:18.799Z,16.88
2018-04-14T14:52:18.533Z,16.88
2018-04-14T14:53:18.531Z,16.88
2018-04-14T14:54:18.529Z,16.88
2018-04-14T14:55:18.541Z,16.88
2018-04-14T14:56:18.510Z,16.88
2018-04-14T14:57:18.503Z,16.88
2018-04-14T14:58:18.599Z,16.88
2018-04-14T14:59:18.518Z,16.88
2018-04-14T15:00:18.516Z,16.88
2018-04-14T15:01:18.616Z,16.88
2018-04-14T15:02:18.530Z,16.88
2018-04-14T15:03:18.551Z,16.88
2018-04-14T15:04:18.552Z,16.88
2018-04-14T15:05:18.599Z,16.88
2018-04-14T15:06:18.597Z,16.88
2018-04-14T15:07:18.713Z,16.88
2018-04-14T15:08:18.612Z,16.88
2018-04-14T15:09:18.567Z,16.88
2018-04-14T15:10:18.680Z,16.88
2018-04-14T15:11:18.755Z,16.88
2018-04-14T15:12:18.594Z,16.88
2018-04-14T15:13:18.597Z,16.88
2018-04-14T15:14:18.664Z,16.88
2018-04-14T15:15:18.676Z,16.88
2018-04-14T15:16:18.679Z,16.88
2018-04-14T15:17:18.596Z,16.88
2018-04-14T15:18:18.680Z,16.88
2018-04-14T15:19:18.604Z,16.88
2018-04-14T15:20:18.601Z,16.88
2018-04-14T15:21:18.624Z,16.88
2018-04-14T15:22:18.634Z,16.88
2018-04-14T15:23:18.750Z,16.88
2018-04-14T15:24:18.630Z,11.25
2018-04-14T15:25:18.638Z,11.25
2018-04-14T15:26:18.770Z,11.25
2018-04-14T15:27:18.670Z,11.25
2018-04-14T15:28:18.779Z,11.25
2018-04-14T15:29:18.667Z,11.25
2018-04-14T15:30:18.769Z,11.25
2018-04-14T15:31:18.745Z,11.25
2018-04-14T15:32:18.898Z,11.25
2018-04-14T15:33:18.910Z,11.25
2018-04-14T15:34:18.736Z,11.25
2018-04-14T15:35:18.717Z,11.25
2018-04-14T15:36:18.744Z,11.25
2018-04-14T15:37:18.837Z,11.25
2018-04-14T15:38:18.776Z,11.25
2018-04-14T15:39:18.721Z,11.25
2018-04-14T15:40:18.729Z,11.25
2018-04-14T15:41:18.707Z,11.25
2018-04-14T15:42:18.699Z,11.25
2018-04-14T15:43:18.734Z,11.25
2018-04-14T15:44:18.711Z,11.25
2018-04-14T15:45:18.781Z,11.25
2018-04-14T15:46:18.706Z,11.25
2018-04-14T15:47:18.731Z,11.25
2018-04-14T15:48:18.835Z,11.25
2018-04-14T15:49:18.802Z,11.25
2018-04-14T15:50:18.725Z,11.25
2018-04-14T15:51:18.808Z,11.25
2018-04-14T15:52:18.732Z,11.25
2018-04-14T15:53:18.826Z,11.25
2018-04-14T15:54:18.816Z,11.25
2018-04-14T15:55:18.834Z,11.25
2018-04-14T15:56:18.787Z,11.25
2018-04-14T15:57:18.812Z,11.25
2018-04-14T15:58:18.779Z,11.25
2018-04-14T15:59:18.760Z,11.25
2018-04-14T16:00:18.791Z,11.25
2018-04-14T16:01:18.803Z,11.25
2018-04-14T16:02:18.808Z,11.25
2018-04-14T16:03:18.802Z,11.25
2018-04-14T16:04:18.904Z,11.25
2018-04-14T16:05:18.816Z,11.25
2018-04-14T16:06:18.823Z,11.25
2018-04-14T16:07:18.834Z,11.25
2018-04-14T16:08:18.936Z,11.25
2018-04-14T16:09:18.917Z,11.25
2018-04-14T16:10:18.946Z,11.25
2018-04-14T16:11:20.362Z,11.25
2018-04-14T16:12:18.908Z,11.25
2018-04-14T16:13:18.902Z,11.25
2018-04-14T16:14:18.861Z,11.25
2018-04-14T16:15:18.914Z,11.25
2018-04-14T16:16:18.861Z,11.25
2018-04-14T16:17:18.909Z,11.25
2018-04-14T16:18:18.846Z,5.63
2018-04-14T16:19:18.973Z,5.63
2018-04-14T16:20:18.860Z,5.63
2018-04-14T16:21:18.917Z,5.63
2018-04-14T16:22:18.848Z,5.63
2018-04-14T16:23:18.943Z,5.63
2018-04-14T16:24:18.853Z,5.63
2018-04-14T16:25:18.967Z,5.63
2018-04-14T16:26:18.864Z,5.63